Time;durP1;ratioP1;P1;durP2;ratioP2;P2;SDS_P1;SDS_P2;PMS_P1;PMS_P2;Temp;Humidity;BMP_temperature;BMP_pressure;BME280_temperature;BME280_humidity;BME280_pressure;Samples;Min_cycle;Max_cycle;Signal;HPM_P1;HPM_P2
2023/07/19 00:01:47;;;;;;;2.85;1.25;;;15.60;99.90;;;;;;5035067;28;20146;-51
2023/07/19 00:04:13;;;;;;;3.10;1.30;;;15.50;99.90;;;;;;5061563;28;20013;-51
2023/07/19 00:06:38;;;;;;;2.97;1.42;;;15.40;99.90;;;;;;5055295;28;20392;-52
2023/07/19 00:09:04;;;;;;;3.55;1.55;;;15.30;99.90;;;;;;5061296;28;20047;-49
2023/07/19 00:11:30;;;;;;;2.67;1.08;;;15.30;99.90;;;;;;5069401;28;20467;-51
2023/07/19 00:13:55;;;;;;;2.63;1.23;;;15.30;99.90;;;;;;5053585;28;20021;-51
2023/07/19 00:16:21;;;;;;;3.42;1.20;;;15.30;99.90;;;;;;5067714;28;20024;-50
2023/07/19 00:18:46;;;;;;;2.92;1.23;;;15.40;99.90;;;;;;5059207;28;20059;-50
2023/07/19 00:21:12;;;;;;;3.55;1.40;;;15.50;99.90;;;;;;5060428;28;20400;-50
2023/07/19 00:23:38;;;;;;;2.42;1.20;;;15.40;99.90;;;;;;5060155;28;20017;-51
2023/07/19 00:26:04;;;;;;;1.45;0.90;;;15.30;99.90;;;;;;5060887;28;20547;-49
2023/07/19 00:28:29;;;;;;;1.80;1.10;;;15.20;99.90;;;;;;5047264;28;20111;-52
2023/07/19 00:31:00;;;;;;;3.08;1.38;;;15.20;99.90;;;;;;5047830;28;20040;-53
2023/07/19 00:33:26;;;;;;;4.10;1.20;;;15.10;99.90;;;;;;5061817;28;20786;-50
2023/07/19 00:35:52;;;;;;;3.65;1.30;;;15.10;99.90;;;;;;5037770;28;20489;-51
2023/07/19 00:38:18;;;;;;;3.28;1.25;;;15.10;99.90;;;;;;5036660;28;20048;-52
2023/07/19 00:40:43;;;;;;;2.42;1.10;;;15.00;99.90;;;;;;5054769;28;20047;-53
2023/07/19 00:43:10;;;;;;;3.03;1.13;;;15.00;99.90;;;;;;5043329;28;20090;-52
2023/07/19 00:45:40;;;;;;;3.95;1.27;;;14.90;99.90;;;;;;5038780;28;20044;-52
2023/07/19 00:48:07;;;;;;;3.22;1.15;;;14.90;99.90;;;;;;5038232;28;20040;-53
2023/07/19 00:50:33;;;;;;;3.47;1.20;;;14.90;99.90;;;;;;5064698;28;20055;-54
2023/07/19 00:52:59;;;;;;;2.97;1.08;;;14.80;99.90;;;;;;5064434;28;20064;-50
2023/07/19 00:55:24;;;;;;;4.38;1.50;;;14.80;99.90;;;;;;5045808;28;20564;-49
2023/07/19 00:57:50;;;;;;;2.83;1.38;;;14.70;99.90;;;;;;5046100;28;20036;-50
2023/07/19 01:00:16;;;;;;;3.92;1.50;;;14.70;99.90;;;;;;5070013;28;20020;-49
2023/07/19 01:02:42;;;;;;;4.82;1.38;;;14.60;99.90;;;;;;5064237;28;20040;-52
2023/07/19 01:05:07;;;;;;;4.57;1.40;;;14.60;99.90;;;;;;5051512;28;20029;-54
2023/07/19 01:07:33;;;;;;;3.45;1.08;;;14.50;99.90;;;;;;5066513;28;20081;-53
2023/07/19 01:09:59;;;;;;;3.90;1.55;;;14.60;99.90;;;;;;5058628;28;20093;-51
2023/07/19 01:12:24;;;;;;;3.38;1.30;;;14.50;99.90;;;;;;5067928;28;20031;-52
2023/07/19 01:14:50;;;;;;;4.15;1.48;;;14.50;99.90;;;;;;5062202;28;20025;-53
2023/07/19 01:17:15;;;;;;;6.40;1.50;;;14.50;99.90;;;;;;5055848;28;20028;-54
2023/07/19 01:19:43;;;;;;;3.60;1.45;;;14.50;99.90;;;;;;5076266;28;20028;-52
2023/07/19 01:22:09;;;;;;;3.78;1.30;;;14.50;99.90;;;;;;5049797;28;20040;-54
2023/07/19 01:24:35;;;;;;;3.88;1.30;;;14.50;99.90;;;;;;5042107;28;20017;-51
2023/07/19 01:27:01;;;;;;;2.25;1.20;;;14.50;99.90;;;;;;5024373;28;20052;-50
2023/07/19 01:29:26;;;;;;;3.63;1.40;;;14.50;99.90;;;;;;5049078;28;20624;-52
2023/07/19 01:31:53;;;;;;;3.35;1.15;;;14.60;99.90;;;;;;5067792;28;20068;-53
2023/07/19 01:34:18;;;;;;;2.78;1.60;;;14.60;99.90;;;;;;5052538;28;20052;-51
2023/07/19 01:36:44;;;;;;;2.80;1.33;;;14.60;99.90;;;;;;5024842;28;20083;-54
2023/07/19 01:39:10;;;;;;;4.00;1.45;;;14.60;99.90;;;;;;5037640;28;20388;-52
2023/07/19 01:41:35;;;;;;;5.00;1.50;;;14.60;99.90;;;;;;5063588;28;20044;-53
2023/07/19 01:44:01;;;;;;;4.63;1.42;;;14.60;99.90;;;;;;5046009;28;20028;-51
2023/07/19 01:46:28;;;;;;;5.43;1.70;;;14.50;99.90;;;;;;5061652;28;20055;-53
2023/07/19 01:48:54;;;;;;;2.72;1.40;;;14.40;99.90;;;;;;5061445;28;20059;-52
2023/07/19 01:51:19;;;;;;;1.80;1.20;;;14.40;99.90;;;;;;5065404;28;20025;-51
2023/07/19 01:53:45;;;;;;;5.25;1.50;;;14.30;99.90;;;;;;5049712;28;20028;-52
2023/07/19 01:56:10;;;;;;;3.08;1.38;;;14.30;99.90;;;;;;5072109;28;20028;-51
2023/07/19 01:58:36;;;;;;;3.63;1.48;;;14.30;99.90;;;;;;5026294;28;20024;-50
2023/07/19 02:01:02;;;;;;;3.35;1.38;;;14.30;99.90;;;;;;5045964;28;20111;-53
2023/07/19 02:03:29;;;;;;;3.25;1.55;;;14.30;99.90;;;;;;5066248;28;20028;-49
2023/07/19 02:05:59;;;;;;;5.85;1.42;;;14.30;99.90;;;;;;5071785;28;20020;-50
2023/07/19 02:08:26;;;;;;;2.60;1.65;;;14.30;99.90;;;;;;5063550;28;20036;-49
2023/07/19 02:10:51;;;;;;;4.25;1.52;;;14.40;99.90;;;;;;5045781;28;20064;-51
2023/07/19 02:13:17;;;;;;;3.42;1.50;;;14.40;99.90;;;;;;5063426;28;20025;-49
2023/07/19 02:15:46;;;;;;;;;;;14.40;99.90;;;;;;5042840;28;20480;-49
2023/07/19 02:18:12;;;;;;;3.38;1.50;;;14.40;99.90;;;;;;5046888;28;20008;-53
2023/07/19 02:20:43;;;;;;;3.67;1.67;;;14.40;99.90;;;;;;5044124;28;20450;-53
2023/07/19 02:23:08;;;;;;;3.65;1.50;;;14.40;99.90;;;;;;5062777;28;20116;-52
2023/07/19 02:25:34;;;;;;;4.40;1.60;;;14.40;99.90;;;;;;5053992;28;20087;-53
2023/07/19 02:28:01;;;;;;;3.58;1.50;;;14.50;99.90;;;;;;5061480;28;20025;-54
2023/07/19 02:30:30;;;;;;;5.95;2.00;;;14.40;99.90;;;;;;5056708;28;20024;-52
2023/07/19 02:32:55;;;;;;;5.00;1.58;;;14.40;99.90;;;;;;5066219;28;20432;-52
2023/07/19 02:35:23;;;;;;;4.20;1.60;;;14.50;99.90;;;;;;5048159;28;20017;-54
2023/07/19 02:37:48;;;;;;;5.63;1.85;;;14.50;99.90;;;;;;5043521;28;20043;-52
2023/07/19 02:40:14;;;;;;;4.50;1.58;;;14.40;99.90;;;;;;5053861;28;20035;-51
2023/07/19 02:42:40;;;;;;;3.90;1.45;;;14.40;99.90;;;;;;5067335;28;20044;-53
2023/07/19 02:45:06;;;;;;;3.55;1.50;;;14.30;99.90;;;;;;5031403;28;20036;-54
2023/07/19 02:47:32;;;;;;;4.72;1.52;;;14.20;99.90;;;;;;5028155;28;20041;-51
2023/07/19 02:49:57;;;;;;;4.15;1.73;;;14.20;99.90;;;;;;5057866;28;20033;-50
2023/07/19 02:52:23;;;;;;;2.08;1.08;;;14.10;99.90;;;;;;5052805;28;20029;-52
2023/07/19 02:54:48;;;;;;;3.88;1.52;;;14.00;99.90;;;;;;5054511;28;20029;-53
2023/07/19 02:57:14;;;;;;;3.22;1.48;;;14.00;99.90;;;;;;5062502;28;20074;-53
2023/07/19 02:59:40;;;;;;;4.60;1.60;;;13.90;99.90;;;;;;5048407;28;20021;-54
2023/07/19 03:02:05;;;;;;;4.43;1.73;;;14.00;99.90;;;;;;5040723;28;20040;-54
2023/07/19 03:04:31;;;;;;;3.17;1.40;;;14.00;99.90;;;;;;5047505;28;20044;-52
2023/07/19 03:06:57;;;;;;;2.67;1.45;;;14.00;99.90;;;;;;5060202;28;20563;-52
2023/07/19 03:09:23;;;;;;;4.18;1.65;;;14.00;99.90;;;;;;5041610;28;20052;-52
2023/07/19 03:11:48;;;;;;;3.78;1.75;;;13.90;99.90;;;;;;5044384;28;20077;-50
2023/07/19 03:14:15;;;;;;;4.20;1.70;;;13.90;99.90;;;;;;5059284;28;20071;-54
2023/07/19 03:16:41;;;;;;;5.68;1.70;;;13.80;99.90;;;;;;5043637;28;20036;-49
2023/07/19 03:19:08;;;;;;;3.78;1.38;;;13.80;99.90;;;;;;5042639;28;20029;-52
2023/07/19 03:21:34;;;;;;;4.22;1.85;;;13.90;99.90;;;;;;5045467;28;20381;-52
2023/07/19 03:23:59;;;;;;;4.40;1.73;;;13.80;99.90;;;;;;5047070;28;20029;-53
2023/07/19 03:26:25;;;;;;;4.30;1.67;;;13.90;99.90;;;;;;5061530;28;20047;-54
2023/07/19 03:28:51;;;;;;;4.50;1.48;;;14.00;99.90;;;;;;5043771;28;20029;-51
2023/07/19 03:31:16;;;;;;;3.38;1.92;;;14.00;99.90;;;;;;5055156;28;20020;-53
2023/07/19 03:33:42;;;;;;;5.13;1.48;;;13.90;99.90;;;;;;5044894;28;20036;-54
2023/07/19 03:36:09;;;;;;;3.40;1.73;;;13.90;99.90;;;;;;5028261;28;20116;-52
2023/07/19 03:38:34;;;;;;;8.10;2.00;;;13.80;99.90;;;;;;5040227;28;20116;-52
2023/07/19 03:41:05;;;;;;;5.20;1.63;;;13.80;99.90;;;;;;5021548;28;20033;-54
2023/07/19 03:43:31;;;;;;;5.50;2.00;;;13.80;99.90;;;;;;5067645;28;20074;-52
2023/07/19 03:45:57;;;;;;;3.63;1.48;;;13.90;99.90;;;;;;5046901;28;20100;-53
2023/07/19 03:48:23;;;;;;;3.60;1.73;;;13.90;99.90;;;;;;5043611;28;20519;-52
2023/07/19 03:51:00;;;;;;;4.65;1.85;;;14.00;99.90;;;;;;5036548;28;20037;-52
2023/07/19 03:53:28;;;;;;;3.88;1.73;;;14.00;99.90;;;;;;5039235;28;20112;-54
2023/07/19 03:55:58;;;;;;;4.85;2.22;;;14.00;99.90;;;;;;5033314;28;20080;-53
2023/07/19 03:58:25;;;;;;;5.10;2.03;;;14.00;99.90;;;;;;5038895;28;20037;-50
2023/07/19 04:00:54;;;;;;;3.92;1.88;;;14.10;99.90;;;;;;5042279;28;20029;-52
2023/07/19 04:03:21;;;;;;;3.95;1.98;;;14.10;99.90;;;;;;5021180;28;20025;-51
2023/07/19 04:05:46;;;;;;;6.25;2.45;;;14.20;99.90;;;;;;5033006;28;20025;-53
2023/07/19 04:08:16;;;;;;;6.13;1.92;;;14.30;99.90;;;;;;5049793;28;20033;-52
2023/07/19 04:10:42;;;;;;;6.35;1.80;;;14.40;99.90;;;;;;5055544;28;20400;-52
2023/07/19 04:13:10;;;;;;;7.07;2.00;;;14.40;99.90;;;;;;5015470;28;20152;-52
2023/07/19 04:15:36;;;;;;;3.25;1.70;;;14.40;99.90;;;;;;5024642;28;20029;-52
2023/07/19 04:18:01;;;;;;;6.80;2.17;;;14.50;99.90;;;;;;5041558;28;20048;-51
2023/07/19 04:20:31;;;;;;;5.70;2.35;;;14.50;99.90;;;;;;5038535;28;20033;-53
2023/07/19 04:22:57;;;;;;;6.03;2.25;;;14.60;99.90;;;;;;5043683;28;20029;-53
2023/07/19 04:25:24;;;;;;;4.90;1.95;;;14.60;99.90;;;;;;5066289;28;20021;-50
2023/07/19 04:27:51;;;;;;;3.92;1.90;;;14.60;99.90;;;;;;5052853;28;20035;-52
2023/07/19 04:30:17;;;;;;;5.28;2.10;;;14.70;99.90;;;;;;5049795;28;20055;-51
2023/07/19 04:32:43;;;;;;;3.85;1.80;;;14.70;99.90;;;;;;5045349;28;20048;-53
2023/07/19 04:35:09;;;;;;;6.50;1.83;;;14.90;99.90;;;;;;5044762;28;20685;-51
2023/07/19 04:37:38;;;;;;;5.07;2.33;;;15.10;99.90;;;;;;5042158;28;20046;-50
2023/07/19 04:40:06;;;;;;;6.47;2.22;;;15.10;99.90;;;;;;5041120;28;20029;-50
2023/07/19 04:42:32;;;;;;;6.72;2.33;;;15.30;99.90;;;;;;5042757;28;20020;-52
2023/07/19 04:44:58;;;;;;;5.35;2.25;;;15.30;99.90;;;;;;5042848;28;20501;-51
2023/07/19 04:47:23;;;;;;;5.03;2.28;;;15.40;99.90;;;;;;5037439;28;20381;-50
2023/07/19 04:49:49;;;;;;;4.30;2.10;;;15.50;99.90;;;;;;5039999;28;20029;-52
2023/07/19 04:52:15;;;;;;;5.25;2.00;;;15.60;99.90;;;;;;5044125;28;20349;-53
2023/07/19 04:54:40;;;;;;;10.60;2.80;;;15.60;99.90;;;;;;5044523;28;20033;-52
2023/07/19 04:57:06;;;;;;;6.18;2.30;;;15.60;99.90;;;;;;5047541;28;20048;-52
2023/07/19 04:59:32;;;;;;;5.78;2.53;;;15.60;99.90;;;;;;5043989;28;20024;-53
2023/07/19 05:01:58;;;;;;;5.55;2.00;;;15.70;99.90;;;;;;5045769;28;20388;-48
2023/07/19 05:04:24;;;;;;;7.45;2.00;;;15.80;99.90;;;;;;5044795;28;20028;-53
2023/07/19 05:06:52;;;;;;;8.32;2.47;;;15.90;99.90;;;;;;5047262;28;20433;-52
2023/07/19 05:09:18;;;;;;;4.88;2.58;;;15.90;99.90;;;;;;5042963;28;20036;-51
2023/07/19 05:14:26;;;;;;;7.78;2.67;;;16.00;99.90;;;;;;5101114;22;20096;-51
2023/07/19 05:16:52;;;;;;;9.98;2.63;;;16.10;99.90;;;;;;5027374;28;20038;-51
2023/07/19 05:19:19;;;;;;;8.20;2.33;;;16.30;99.90;;;;;;4979029;28;188425;-49
2023/07/19 05:21:45;;;;;;;8.13;3.08;;;16.30;99.90;;;;;;4987276;28;20042;-49
2023/07/19 05:24:12;;;;;;;7.78;2.50;;;16.30;99.90;;;;;;4989017;28;20038;-52
2023/07/19 05:26:39;;;;;;;6.72;2.50;;;16.40;99.90;;;;;;4988747;28;20281;-52
2023/07/19 05:29:05;;;;;;;5.95;2.35;;;16.40;99.90;;;;;;4988912;28;20034;-52
2023/07/19 05:31:31;;;;;;;8.75;2.50;;;16.50;99.90;;;;;;4990653;28;20034;-47
2023/07/19 05:33:56;;;;;;;6.03;2.88;;;16.50;99.90;;;;;;4991047;28;20035;-51
2023/07/19 05:36:22;;;;;;;9.30;2.40;;;16.50;99.90;;;;;;4990868;28;20022;-53
2023/07/19 05:38:48;;;;;;;10.10;3.10;;;16.60;99.90;;;;;;4990986;28;20030;-53
2023/07/19 05:41:13;;;;;;;4.57;2.13;;;16.60;99.90;;;;;;4990399;28;20559;-51
2023/07/19 05:43:39;;;;;;;7.20;2.40;;;16.60;99.90;;;;;;4989216;28;20080;-50
2023/07/19 05:46:08;;;;;;;4.53;1.95;;;16.60;99.90;;;;;;4989411;28;20151;-51
2023/07/19 05:48:34;;;;;;;4.50;2.15;;;16.70;99.90;;;;;;4989768;28;20030;-53
2023/07/19 05:51:04;;;;;;;7.45;2.00;;;16.70;99.90;;;;;;4988526;28;20066;-53
2023/07/19 05:53:30;;;;;;;3.80;2.00;;;16.70;99.90;;;;;;4991102;28;20501;-52
2023/07/19 05:55:56;;;;;;;4.30;2.10;;;16.70;99.90;;;;;;4993283;28;20156;-52
2023/07/19 05:58:22;;;;;;;3.85;1.95;;;16.80;99.90;;;;;;4993193;28;20039;-53
2023/07/19 06:00:48;;;;;;;5.88;2.45;;;16.80;99.90;;;;;;4993320;28;20497;-52
2023/07/19 06:03:16;;;;;;;4.35;2.20;;;16.70;99.90;;;;;;4993334;28;20038;-52
2023/07/19 06:05:43;;;;;;;5.88;2.03;;;16.70;99.90;;;;;;4993932;28;20081;-52
2023/07/19 06:08:09;;;;;;;6.55;2.30;;;16.70;99.90;;;;;;4993766;28;20026;-53
2023/07/19 06:10:35;;;;;;;5.80;1.98;;;16.70;99.90;;;;;;4993173;28;20034;-53
2023/07/19 06:13:03;;;;;;;3.20;1.65;;;16.70;99.90;;;;;;4992348;28;20544;-50
2023/07/19 06:15:29;;;;;;;6.45;2.17;;;16.80;99.90;;;;;;4993576;28;20033;-53
2023/07/19 06:17:55;;;;;;;5.13;2.28;;;16.80;99.90;;;;;;4995053;28;20034;-52
2023/07/19 06:20:21;;;;;;;5.40;2.33;;;16.90;99.90;;;;;;4993173;28;20551;-53
2023/07/19 06:22:46;;;;;;;5.03;2.63;;;17.00;99.90;;;;;;4993255;28;20029;-53
2023/07/19 06:25:12;;;;;;;7.75;2.85;;;17.10;99.90;;;;;;4994615;28;20423;-51
2023/07/19 06:27:37;;;;;;;4.60;2.60;;;17.20;99.90;;;;;;4995057;28;20069;-51
2023/07/19 06:30:04;;;;;;;7.32;2.28;;;17.30;99.90;;;;;;4975756;28;20030;-53
2023/07/19 06:32:30;;;;;;;6.05;2.30;;;17.40;99.90;;;;;;4993579;28;20030;-50
2023/07/19 06:34:55;;;;;;;5.60;2.60;;;17.40;99.90;;;;;;4994160;28;20089;-48
2023/07/19 06:37:21;;;;;;;5.75;2.67;;;17.40;99.90;;;;;;4994019;28;20034;-52
2023/07/19 06:39:48;;;;;;;5.78;2.80;;;17.50;99.90;;;;;;4992567;28;20053;-53
2023/07/19 06:42:13;;;;;;;6.40;2.80;;;17.50;99.90;;;;;;4993678;28;20019;-53
2023/07/19 06:44:40;;;;;;;7.78;2.70;;;17.50;99.90;;;;;;4993133;28;20023;-51
2023/07/19 06:47:06;;;;;;;8.15;2.72;;;17.50;99.90;;;;;;4994923;28;20037;-54
2023/07/19 06:49:31;;;;;;;6.85;2.60;;;17.50;99.90;;;;;;4995131;28;20375;-53
2023/07/19 06:51:57;;;;;;;7.47;2.90;;;17.50;99.90;;;;;;4995063;28;20034;-54
2023/07/19 06:54:23;;;;;;;5.38;2.90;;;17.60;99.90;;;;;;4994663;28;20038;-50
2023/07/19 06:56:48;;;;;;;11.13;5.13;;;17.70;99.90;;;;;;4993731;28;20038;-54
2023/07/19 06:59:14;;;;;;;15.20;7.57;;;17.80;99.90;;;;;;4994841;28;20126;-51
2023/07/19 07:01:39;;;;;;;6.97;3.47;;;17.80;99.90;;;;;;4993747;28;20113;-52
2023/07/19 07:04:08;;;;;;;13.73;6.30;;;17.90;99.90;;;;;;4994128;28;20505;-54
2023/07/19 07:06:34;;;;;;;6.97;3.63;;;18.00;99.90;;;;;;4993362;28;20034;-53
2023/07/19 07:09:00;;;;;;;7.70;4.18;;;18.10;99.90;;;;;;4994617;28;20033;-52
2023/07/19 07:11:25;;;;;;;7.88;3.83;;;18.20;99.90;;;;;;4994707;28;20347;-53
2023/07/19 07:13:51;;;;;;;8.40;3.25;;;18.20;99.90;;;;;;4991397;28;20038;-54
2023/07/19 07:16:17;;;;;;;5.57;2.88;;;18.20;99.90;;;;;;4993377;28;20030;-53
2023/07/19 07:18:42;;;;;;;7.28;2.83;;;18.20;99.90;;;;;;4993292;28;20030;-54
2023/07/19 07:21:08;;;;;;;8.85;3.28;;;18.20;99.90;;;;;;4993226;28;20118;-52
2023/07/19 07:23:34;;;;;;;6.95;2.70;;;18.20;99.90;;;;;;4992138;28;20486;-54
2023/07/19 07:26:00;;;;;;;6.18;2.92;;;18.20;99.90;;;;;;4991242;28;20054;-53
2023/07/19 07:28:26;;;;;;;8.85;3.13;;;18.30;99.90;;;;;;4991690;28;20048;-49
2023/07/19 07:30:52;;;;;;;6.55;2.55;;;18.40;99.90;;;;;;4993131;28;20034;-53
2023/07/19 07:33:19;;;;;;;6.43;2.80;;;18.50;99.90;;;;;;4992603;28;20045;-52
2023/07/19 07:35:45;;;;;;;11.30;4.25;;;18.60;99.90;;;;;;4993572;28;20039;-53
2023/07/19 07:38:11;;;;;;;7.20;3.53;;;18.60;99.90;;;;;;4994747;28;20034;-53
2023/07/19 07:40:37;;;;;;;11.07;4.07;;;18.80;99.90;;;;;;4994068;28;20467;-53
2023/07/19 07:43:02;;;;;;;6.68;2.83;;;18.90;99.90;;;;;;4992989;28;20069;-53
2023/07/19 07:45:28;;;;;;;7.03;2.88;;;19.00;99.90;;;;;;4991127;28;20489;-54
2023/07/19 07:47:54;;;;;;;8.20;2.95;;;19.20;99.90;;;;;;4988622;28;20088;-55
2023/07/19 07:50:19;;;;;;;6.20;2.38;;;19.50;99.90;;;;;;4990179;28;20125;-52
2023/07/19 07:52:45;;;;;;;4.70;2.03;;;19.70;99.90;;;;;;4989960;28;20117;-51
2023/07/19 07:55:11;;;;;;;6.18;2.28;;;19.90;99.90;;;;;;4988822;28;20045;-53
2023/07/19 07:57:37;;;;;;;5.80;2.38;;;20.10;99.90;;;;;;4989948;28;20034;-53
2023/07/19 08:00:10;;;;;;;5.93;2.55;;;20.20;99.90;;;;;;4991267;28;20462;-53
2023/07/19 08:02:36;;;;;;;5.93;2.35;;;20.50;99.90;;;;;;4991614;28;20038;-54
2023/07/19 08:05:03;;;;;;;9.25;1.90;;;20.60;99.90;;;;;;4992433;28;20041;-54
2023/07/19 08:07:29;;;;;;;5.95;1.77;;;20.80;99.90;;;;;;4992078;28;20422;-52
2023/07/19 08:09:55;;;;;;;5.30;2.17;;;20.90;99.90;;;;;;4989922;28;20050;-53
2023/07/19 08:12:20;;;;;;;5.93;2.45;;;21.00;99.90;;;;;;4991019;28;20128;-54
2023/07/19 08:14:46;;;;;;;4.95;2.13;;;21.10;99.90;;;;;;4990050;28;20035;-52
2023/07/19 08:17:12;;;;;;;7.00;2.25;;;21.10;99.90;;;;;;4991200;28;20030;-55
2023/07/19 08:19:38;;;;;;;6.60;2.50;;;21.20;99.90;;;;;;4993698;28;20101;-51
2023/07/19 08:22:05;;;;;;;5.45;2.70;;;21.20;99.90;;;;;;4993225;28;20042;-53
2023/07/19 08:24:31;;;;;;;5.50;2.13;;;21.10;99.90;;;;;;4993539;28;20079;-54
2023/07/19 08:26:57;;;;;;;6.60;2.60;;;21.10;99.90;;;;;;4993241;28;20483;-54
2023/07/19 08:29:23;;;;;;;5.55;2.28;;;21.20;99.90;;;;;;4992537;28;20473;-53
2023/07/19 08:31:49;;;;;;;4.07;2.20;;;21.20;99.90;;;;;;4993166;28;20023;-54
2023/07/19 08:34:15;;;;;;;5.47;2.17;;;21.30;99.90;;;;;;4992732;28;20045;-54
2023/07/19 08:36:40;;;;;;;4.40;2.20;;;21.30;99.90;;;;;;4993111;28;20041;-53
2023/07/19 08:39:06;;;;;;;9.27;2.92;;;21.30;99.90;;;;;;4993098;28;20439;-54
2023/07/19 08:41:32;;;;;;;3.92;2.10;;;21.20;99.90;;;;;;4992472;28;20060;-53
2023/07/19 08:43:58;;;;;;;5.80;2.47;;;21.20;99.90;;;;;;4993190;28;20026;-53
2023/07/19 08:46:24;;;;;;;3.85;2.10;;;21.20;99.90;;;;;;4991334;28;20034;-54
2023/07/19 08:48:50;;;;;;;7.43;2.30;;;21.20;99.90;;;;;;4991722;28;20038;-52
2023/07/19 08:51:18;;;;;;;4.93;2.67;;;21.20;99.90;;;;;;4992764;28;20038;-53
2023/07/19 08:53:44;;;;;;;6.20;1.98;;;21.30;99.90;;;;;;4992600;28;20243;-53
2023/07/19 08:56:11;;;;;;;3.42;1.63;;;21.40;99.90;;;;;;4991551;28;20049;-55
2023/07/19 08:58:39;;;;;;;3.20;1.27;;;21.50;99.90;;;;;;4993762;28;20080;-53
2023/07/19 09:01:06;;;;;;;5.35;1.90;;;21.30;99.90;;;;;;4990158;28;20038;-53
2023/07/19 09:03:33;;;;;;;3.00;1.63;;;21.30;99.90;;;;;;4989067;28;20509;-53
2023/07/19 09:05:59;;;;;;;6.57;1.55;;;21.40;99.80;;;;;;4990252;28;20045;-48
2023/07/19 09:08:38;;;;;;;4.07;1.67;;;21.20;99.90;;;;;;4988217;28;20038;-50
2023/07/19 09:11:04;;;;;;;7.55;2.17;;;21.20;99.90;;;;;;4990538;28;20427;-52
2023/07/19 09:13:37;;;;;;;4.90;2.10;;;21.20;99.90;;;;;;4989115;28;20030;-50
2023/07/19 09:16:04;;;;;;;5.13;2.55;;;21.30;99.90;;;;;;4991402;28;20057;-52
2023/07/19 09:18:35;;;;;;;4.75;2.33;;;21.30;99.90;;;;;;4989587;28;20030;-50
2023/07/19 09:21:03;;;;;;;5.60;2.28;;;21.40;99.90;;;;;;4991091;28;20038;-50
2023/07/19 09:23:34;;;;;;;4.95;1.95;;;21.50;99.90;;;;;;4985359;28;20026;-53
2023/07/19 09:25:59;;;;;;;7.40;1.67;;;21.80;99.90;;;;;;4990006;28;20033;-52
2023/07/19 09:28:25;;;;;;;6.68;2.50;;;21.90;99.10;;;;;;4991829;28;20046;-53
2023/07/19 09:31:01;;;;;;;4.38;1.80;;;21.90;98.80;;;;;;4993531;28;20125;-53
2023/07/19 09:33:27;;;;;;;4.88;1.73;;;21.80;99.00;;;;;;4993442;28;20157;-53
2023/07/19 09:35:54;;;;;;;4.70;2.13;;;21.80;99.20;;;;;;4993517;28;20137;-53
2023/07/19 09:38:25;;;;;;;3.25;1.50;;;21.80;99.30;;;;;;4993237;28;20038;-54
2023/07/19 09:40:51;;;;;;;3.08;1.48;;;21.90;98.10;;;;;;4994562;28;20032;-53
2023/07/19 09:43:17;;;;;;;3.22;1.52;;;21.80;98.00;;;;;;4991956;28;20080;-53
2023/07/19 09:45:46;;;;;;;3.08;1.50;;;21.80;98.50;;;;;;4994239;28;20462;-50
2023/07/19 09:48:14;;;;;;;4.45;1.60;;;21.90;98.50;;;;;;4994075;28;20035;-54
2023/07/19 09:50:41;;;;;;;2.53;1.35;;;22.10;98.40;;;;;;4992019;28;20038;-54
2023/07/19 09:53:12;;;;;;;4.88;1.90;;;22.10;98.00;;;;;;4992167;28;20042;-52
2023/07/19 09:55:39;;;;;;;4.85;1.80;;;22.20;97.60;;;;;;4993604;28;20089;-53
2023/07/19 09:58:11;;;;;;;2.10;1.48;;;22.30;97.50;;;;;;4992604;28;20093;-52
2023/07/19 10:00:38;;;;;;;2.92;1.40;;;22.50;97.00;;;;;;4992757;28;20026;-52
2023/07/19 10:03:07;;;;;;;5.00;1.50;;;22.50;95.90;;;;;;4990520;28;20034;-49
2023/07/19 10:05:34;;;;;;;3.47;1.20;;;22.50;96.20;;;;;;4992413;28;20039;-49
2023/07/19 10:08:04;;;;;;;2.08;1.30;;;22.60;95.60;;;;;;4994003;28;20130;-52
2023/07/19 10:10:40;;;;;;;3.38;1.42;;;22.70;95.20;;;;;;4995106;28;20042;-48
2023/07/19 10:13:08;;;;;;;3.78;1.45;;;22.60;95.40;;;;;;4995002;28;20535;-53
2023/07/19 10:15:37;;;;;;;4.85;1.60;;;22.60;95.30;;;;;;4993785;28;20089;-52
2023/07/19 10:18:11;;;;;;;2.85;1.50;;;22.60;95.40;;;;;;4994547;28;20029;-53
2023/07/19 10:20:37;;;;;;;3.13;1.20;;;22.60;94.90;;;;;;4994855;28;20034;-50
2023/07/19 10:23:08;;;;;;;3.22;1.10;;;22.60;95.10;;;;;;4994328;28;20096;-51
2023/07/19 10:25:50;;;;;;;2.97;1.23;;;22.70;95.40;;;;;;4995231;28;20038;-51
2023/07/19 10:28:29;;;;;;;3.22;1.40;;;22.80;94.80;;;;;;4994714;28;20030;-52
2023/07/19 10:31:00;;;;;;;3.70;1.27;;;22.90;94.80;;;;;;4995090;28;20026;-50
2023/07/19 10:33:26;;;;;;;5.60;1.70;;;22.90;94.50;;;;;;4995559;28;20038;-54
2023/07/19 10:36:09;;;;;;;4.28;1.30;;;22.90;94.20;;;;;;4994746;28;20515;-54
2023/07/19 10:38:36;;;;;;;5.35;1.50;;;22.90;94.80;;;;;;4994658;28;20042;-53
2023/07/19 10:41:07;;;;;;;3.17;1.33;;;23.00;94.40;;;;;;4993939;28;20038;-53
2023/07/19 10:43:35;;;;;;;2.08;1.10;;;22.90;94.60;;;;;;4994215;28;20042;-54
2023/07/19 10:46:04;;;;;;;4.78;1.30;;;22.90;94.60;;;;;;4994379;28;20030;-54
2023/07/19 10:48:32;;;;;;;4.80;1.30;;;23.10;94.50;;;;;;4994526;28;20083;-53
2023/07/19 10:51:03;;;;;;;3.75;1.60;;;23.30;95.00;;;;;;4994686;28;20114;-54
2023/07/19 10:53:30;;;;;;;4.13;1.55;;;23.50;95.30;;;;;;4994510;28;20046;-49
2023/07/19 10:55:58;;;;;;;7.00;1.67;;;23.50;95.40;;;;;;4994334;28;20118;-49
2023/07/19 10:58:27;;;;;;;;;;;23.60;94.60;;;;;;4994624;28;20394;-54
2023/07/19 11:00:54;;;;;;;3.25;1.30;;;23.60;94.30;;;;;;4994524;28;19916;-51
2023/07/19 11:03:23;;;;;;;2.50;1.20;;;23.50;93.80;;;;;;4994039;28;20045;-53
2023/07/19 11:05:49;;;;;;;;;;;23.50;93.50;;;;;;4995214;28;20026;-51
2023/07/19 11:08:28;;;;;;;2.33;1.23;;;23.40;93.50;;;;;;4993586;28;19916;-53
2023/07/19 11:10:56;;;;;;;5.38;1.65;;;23.30;93.80;;;;;;4993967;28;20034;-49
2023/07/19 11:13:24;;;;;;;3.05;1.40;;;23.40;94.30;;;;;;4994093;28;20038;-52
2023/07/19 11:15:54;;;;;;;5.45;1.20;;;23.50;94.80;;;;;;4994105;28;20050;-53
2023/07/19 11:18:46;;;;;;;2.60;1.38;;;23.60;94.30;;;;;;4992716;28;20050;-54
2023/07/19 11:21:11;;;;;;;2.92;1.10;;;23.70;94.30;;;;;;4994551;28;20538;-53
2023/07/19 11:23:44;;;;;;;3.33;1.50;;;23.70;94.10;;;;;;4994019;28;20101;-54
2023/07/19 11:26:11;;;;;;;5.95;1.95;;;23.70;94.20;;;;;;4994423;28;20026;-53
2023/07/19 11:28:44;;;;;;;5.57;1.67;;;23.80;93.80;;;;;;4993984;28;20118;-52
2023/07/19 11:31:25;;;;;;;4.03;1.77;;;23.90;93.40;;;;;;4993683;28;20501;-54
2023/07/19 11:34:16;;;;;;;5.78;1.48;;;23.90;92.90;;;;;;4993174;28;20089;-53
2023/07/19 11:36:44;;;;;;;6.10;1.40;;;23.90;93.20;;;;;;4993606;28;20046;-54
2023/07/19 11:39:24;;;;;;;3.20;1.60;;;23.90;92.90;;;;;;4987746;28;20044;-53
2023/07/19 11:41:50;;;;;;;3.55;1.50;;;23.90;93.40;;;;;;4993512;28;20038;-53
2023/07/19 11:44:21;;;;;;;4.50;1.50;;;23.90;93.40;;;;;;4993723;28;20026;-53
2023/07/19 11:46:47;;;;;;;4.47;1.55;;;24.20;93.00;;;;;;4990096;28;20034;-54
2023/07/19 11:49:13;;;;;;;4.03;1.40;;;24.30;93.20;;;;;;4990202;28;20558;-51
2023/07/19 11:51:40;;;;;;;5.55;1.60;;;24.40;93.20;;;;;;4991169;28;20046;-53
2023/07/19 11:54:06;;;;;;;3.92;1.50;;;24.60;92.40;;;;;;4993288;28;20101;-53
2023/07/19 11:56:32;;;;;;;4.50;1.90;;;24.70;92.50;;;;;;4994115;28;20053;-51
2023/07/19 11:58:57;;;;;;;7.55;1.85;;;24.50;92.70;;;;;;4993546;28;20477;-54
2023/07/19 12:01:24;;;;;;;4.97;1.77;;;24.40;93.00;;;;;;4989875;28;20430;-52
2023/07/19 12:03:50;;;;;;;4.03;1.38;;;24.30;93.60;;;;;;4988883;28;20034;-53
2023/07/19 12:06:15;;;;;;;4.55;1.88;;;24.30;93.70;;;;;;4989170;28;20110;-50
2023/07/19 12:08:41;;;;;;;5.13;1.98;;;24.30;93.70;;;;;;4991767;28;20030;-52
2023/07/19 12:11:08;;;;;;;2.63;1.65;;;24.10;93.70;;;;;;4991687;28;20450;-51
2023/07/19 12:13:36;;;;;;;4.22;1.85;;;24.10;94.00;;;;;;4990326;28;20070;-51
2023/07/19 12:16:03;;;;;;;;;;;24.10;94.20;;;;;;4991821;28;20128;-52
2023/07/19 12:18:30;;;;;;;3.10;1.35;;;24.10;94.20;;;;;;4991569;28;19925;-54
2023/07/19 12:20:56;;;;;;;3.28;1.80;;;24.20;93.90;;;;;;4991689;28;20030;-52
2023/07/19 12:23:22;;;;;;;4.47;1.83;;;24.40;93.90;;;;;;4992034;28;20038;-54
2023/07/19 12:25:47;;;;;;;4.88;1.70;;;24.50;94.20;;;;;;4989637;28;20118;-54
2023/07/19 12:28:14;;;;;;;4.22;1.65;;;24.50;92.90;;;;;;4990372;28;20041;-54
2023/07/19 12:30:41;;;;;;;3.38;1.33;;;24.30;93.80;;;;;;4990235;28;20046;-54
2023/07/19 12:33:06;;;;;;;4.05;1.40;;;24.20;93.70;;;;;;4989763;28;20034;-51
2023/07/19 12:35:32;;;;;;;3.38;1.48;;;24.10;93.40;;;;;;4991232;28;20042;-50
2023/07/19 12:37:58;;;;;;;4.93;1.33;;;24.00;93.30;;;;;;4988729;28;20032;-50
2023/07/19 12:40:23;;;;;;;4.20;1.63;;;23.90;92.90;;;;;;4990232;28;20363;-49
2023/07/19 12:42:49;;;;;;;5.45;2.25;;;24.10;92.90;;;;;;4988928;28;20034;-52
2023/07/19 12:45:16;;;;;;;2.75;1.38;;;24.20;92.30;;;;;;4987314;28;20092;-53
2023/07/19 12:47:41;;;;;;;2.40;1.20;;;24.40;92.50;;;;;;4988617;28;20037;-51
2023/07/19 12:50:07;;;;;;;2.85;1.40;;;24.50;92.50;;;;;;4988799;28;20026;-53